Terminal Aerodrome Forecast
Issued by NWS Blacksburg, VA

Current Version | Previous Version | Graphics & Text | Print | Product List | Glossary On
Versions: 1 2 3 4 5 6 7 8 9 10 11 12 13 14 15 16 17 18 19 20 21 22 23 24 25 26 27 28 29 30 31 32 33 34 35 36 37 38 39 40 41 42 43 44
000
FTUS41 KRNK 141538 AAC
TAFBLF
TAF AMD
KBLF 141538Z 1416/1512 15009G19KT P6SM OVC018
     FM141900 22006KT P6SM OVC035
     FM150000 21003KT P6SM OVC025
     FM150500 25003KT 2SM BR OVC009=

USA.gov is the U.S. government's official web portal to all federal, state and local government web resources and services.